createdAt,value
2023-05-24T00:02:49.893Z,18.48
2023-05-24T00:07:55.366Z,18.56
2023-05-24T00:12:59.002Z,18.49
2023-05-24T00:18:02.706Z,18.73
2023-05-24T00:23:08.102Z,18.69
2023-05-24T00:28:11.802Z,18.60
2023-05-24T00:33:15.471Z,18.29
2023-05-24T00:38:20.821Z,18.51
2023-05-24T00:43:24.805Z,18.45
2023-05-24T00:48:28.581Z,17.98
2023-05-24T00:53:36.241Z,17.79
2023-05-24T00:58:40.398Z,17.95
2023-05-24T01:03:44.292Z,18.04
2023-05-24T01:09:03.419Z,18.04
2023-05-24T01:14:19.313Z,18.10
2023-05-24T01:19:44.551Z,17.94
2023-05-24T01:25:01.671Z,17.53
2023-05-24T01:30:09.135Z,17.53
2023-05-24T01:35:12.961Z,17.16
2023-05-24T01:40:17.204Z,16.80
2023-05-24T01:45:31.254Z,16.88
2023-05-24T01:50:39.433Z,16.74
2023-05-24T01:55:44.987Z,16.72
2023-05-24T02:00:52.534Z,16.38
2023-05-24T02:05:56.226Z,16.20
2023-05-24T02:10:59.876Z,15.96
2023-05-24T02:16:05.585Z,16.22
2023-05-24T02:21:08.471Z,16.06
2023-05-24T02:26:12.143Z,15.78
2023-05-24T02:31:17.478Z,15.69
2023-05-24T02:36:21.282Z,15.51
2023-05-24T02:41:24.936Z,15.29
2023-05-24T02:46:30.279Z,15.33
2023-05-24T02:51:33.943Z,15.07
2023-05-24T02:56:37.743Z,15.03
2023-05-24T03:01:43.068Z,14.84
2023-05-24T03:06:47.558Z,14.79
2023-05-24T03:11:51.220Z,14.69
2023-05-24T03:16:57.501Z,14.70
2023-05-24T03:22:01.196Z,14.70
2023-05-24T03:27:05.149Z,14.41
2023-05-24T03:32:10.500Z,14.56
2023-05-24T03:37:14.154Z,14.74
2023-05-24T03:42:17.857Z,14.61
2023-05-24T03:47:23.241Z,14.56
2023-05-24T03:52:27.072Z,14.48
2023-05-24T03:57:30.720Z,14.38
2023-05-24T04:02:36.061Z,14.35
2023-05-24T04:07:39.890Z,14.23
2023-05-24T04:12:43.567Z,14.16
2023-05-24T04:17:48.897Z,14.29
2023-05-24T04:22:52.646Z,14.25
2023-05-24T04:27:56.355Z,14.09
2023-05-24T04:33:01.814Z,14.21
2023-05-24T04:38:05.590Z,14.02
2023-05-24T04:43:09.699Z,14.01
2023-05-24T04:48:15.049Z,14.00
2023-05-24T04:53:18.752Z,13.97
2023-05-24T04:58:22.531Z,13.99
2023-05-24T05:03:27.987Z,13.86
2023-05-24T05:08:31.732Z,13.75
2023-05-24T05:13:35.378Z,13.66
2023-05-24T05:18:40.671Z,13.64
2023-05-24T05:23:44.337Z,13.49
2023-05-24T05:28:47.994Z,13.46
2023-05-24T05:33:53.732Z,13.36
2023-05-24T05:38:58.143Z,13.35
2023-05-24T05:44:01.838Z,13.27
2023-05-24T05:49:07.755Z,13.19
2023-05-24T05:54:10.962Z,13.13
2023-05-24T05:59:15.223Z,12.87
2023-05-24T06:04:20.625Z,12.78
2023-05-24T06:09:24.387Z,12.91
2023-05-24T06:14:28.169Z,12.84
2023-05-24T06:19:33.479Z,12.82
2023-05-24T06:24:37.148Z,12.70
2023-05-24T06:29:40.830Z,12.59
2023-05-24T06:34:47.158Z,12.49
2023-05-24T06:39:50.812Z,12.57
2023-05-24T06:44:54.467Z,12.52
2023-05-24T06:49:59.765Z,12.46
2023-05-24T06:55:03.464Z,12.37
2023-05-24T07:00:08.615Z,12.33
2023-05-24T07:05:13.973Z,12.19
2023-05-24T07:10:17.742Z,12.13
2023-05-24T07:15:21.467Z,12.11
2023-05-24T07:20:27.017Z,12.10
2023-05-24T07:25:31.129Z,12.07
2023-05-24T07:30:34.978Z,12.00
2023-05-24T07:35:41.430Z,12.01
2023-05-24T07:41:03.750Z,11.91
2023-05-24T07:46:07.482Z,11.85
2023-05-24T07:51:11.142Z,11.82
2023-05-24T07:56:16.451Z,11.79
2023-05-24T08:01:20.139Z,11.68
2023-05-24T08:06:23.905Z,11.60
2023-05-24T08:11:29.256Z,11.58
2023-05-24T08:16:33.522Z,11.54
2023-05-24T08:21:37.210Z,11.57
2023-05-24T08:26:42.580Z,11.50
2023-05-24T08:31:46.270Z,11.45
2023-05-24T08:36:50.504Z,11.41
2023-05-24T08:42:08.526Z,11.26
2023-05-24T08:47:13.834Z,11.19
2023-05-24T08:52:18.804Z,11.20
2023-05-24T08:57:27.137Z,11.17
2023-05-24T09:02:32.416Z,11.12
2023-05-24T09:07:36.206Z,11.06
2023-05-24T09:12:45.307Z,11.03
2023-05-24T09:17:49.000Z,11.03
2023-05-24T09:22:53.482Z,11.01
2023-05-24T09:27:58.880Z,10.93
2023-05-24T09:33:02.834Z,10.85
2023-05-24T09:38:06.538Z,10.81
2023-05-24T09:43:12.297Z,10.81
2023-05-24T09:48:16.707Z,10.72
2023-05-24T09:53:23.044Z,10.65
2023-05-24T09:58:31.044Z,10.66
2023-05-24T10:03:35.533Z,10.61
2023-05-24T10:08:39.862Z,10.66
2023-05-24T10:13:45.646Z,10.68
2023-05-24T10:18:49.360Z,10.58
2023-05-24T10:23:55.789Z,10.58
2023-05-24T10:29:07.534Z,10.80
2023-05-24T10:34:11.926Z,10.76
2023-05-24T10:39:15.638Z,10.77
2023-05-24T10:44:21.625Z,10.87
2023-05-24T10:49:25.259Z,10.72
2023-05-24T10:54:28.955Z,10.61
2023-05-24T10:59:36.513Z,10.47
2023-05-24T11:04:41.299Z,10.46
2023-05-24T11:09:48.175Z,10.32
2023-05-24T11:14:54.695Z,10.40
2023-05-24T11:19:58.593Z,10.39
2023-05-24T11:25:03.036Z,10.40
2023-05-24T11:30:10.315Z,10.51
2023-05-24T11:35:14.012Z,10.38
2023-05-24T11:40:18.236Z,10.38
2023-05-24T11:45:23.724Z,10.47
2023-05-24T11:50:28.811Z,10.46
2023-05-24T11:55:33.336Z,10.45
2023-05-24T12:00:38.757Z,10.31
2023-05-24T12:05:42.443Z,10.16
2023-05-24T12:10:46.215Z,10.29
2023-05-24T12:15:55.853Z,10.37
2023-05-24T12:21:00.554Z,10.37
2023-05-24T12:26:04.313Z,10.38
2023-05-24T12:31:10.658Z,10.43
2023-05-24T12:36:14.962Z,10.35
2023-05-24T12:41:18.621Z,10.45
2023-05-24T12:46:23.932Z,10.52
2023-05-24T12:51:27.635Z,10.52
2023-05-24T12:56:31.352Z,10.59
2023-05-24T13:01:37.851Z,10.70
2023-05-24T13:06:41.663Z,10.66
2023-05-24T13:11:45.381Z,10.63
2023-05-24T13:16:51.134Z,10.59
2023-05-24T13:21:54.889Z,10.63
2023-05-24T13:26:58.792Z,10.66
2023-05-24T13:32:04.151Z,10.78
2023-05-24T13:37:07.977Z,11.02
2023-05-24T13:42:11.825Z,11.07
2023-05-24T13:47:27.297Z,11.12
2023-05-24T13:52:39.478Z,11.28
2023-05-24T13:57:51.556Z,11.37
2023-05-24T14:02:57.599Z,11.50
2023-05-24T14:08:01.343Z,11.60
2023-05-24T14:18:16.514Z,11.93
2023-05-24T14:23:20.200Z,11.92
2023-05-24T14:28:23.892Z,11.96
2023-05-24T14:33:29.210Z,11.99
2023-05-24T14:38:32.946Z,11.98
2023-05-24T14:43:36.604Z,12.23
2023-05-24T14:48:41.926Z,12.32
2023-05-24T14:53:45.631Z,12.39
2023-05-24T14:58:49.282Z,12.48
2023-05-24T15:03:54.750Z,12.42
2023-05-24T15:08:58.561Z,12.31
2023-05-24T15:14:02.241Z,12.38
2023-05-24T15:19:07.585Z,12.43
2023-05-24T15:24:11.262Z,12.58
2023-05-24T15:29:14.970Z,12.64
2023-05-24T15:34:21.498Z,12.49
2023-05-24T15:39:27.226Z,12.78
2023-05-24T15:44:30.914Z,13.03
2023-05-24T15:49:37.223Z,13.00
2023-05-24T15:54:40.885Z,13.12
2023-05-24T15:59:44.604Z,13.38
2023-05-24T16:04:51.658Z,13.41
2023-05-24T16:09:55.438Z,13.63
2023-05-24T16:15:00.378Z,13.75
2023-05-24T16:20:06.371Z,13.93
2023-05-24T16:25:09.558Z,14.21
2023-05-24T16:30:13.920Z,14.34
2023-05-24T16:35:19.298Z,14.36
2023-05-24T16:40:23.175Z,14.50
2023-05-24T16:45:26.859Z,14.34
2023-05-24T16:50:32.176Z,14.34
2023-05-24T16:55:35.820Z,14.48
2023-05-24T17:00:39.477Z,14.55
2023-05-24T17:05:44.796Z,14.70
2023-05-24T17:10:48.589Z,14.87
2023-05-24T17:15:52.450Z,14.61
2023-05-24T17:20:58.697Z,14.49
2023-05-24T17:26:02.990Z,14.87
2023-05-24T17:31:09.242Z,14.67
2023-05-24T17:36:14.608Z,14.83
2023-05-24T17:41:18.320Z,14.81
2023-05-24T17:46:22.004Z,14.94
2023-05-24T17:51:27.388Z,15.07
2023-05-24T17:56:31.054Z,15.47
2023-05-24T18:01:35.197Z,15.85
2023-05-24T18:06:40.556Z,16.30
2023-05-24T18:11:44.215Z,16.54
2023-05-24T18:16:47.928Z,16.59
2023-05-24T18:21:54.102Z,16.73
2023-05-24T18:26:57.733Z,16.92
2023-05-24T18:32:01.424Z,17.07
2023-05-24T18:37:06.946Z,17.27
2023-05-24T18:42:10.592Z,17.28
2023-05-24T18:47:14.255Z,17.72
2023-05-24T18:52:20.488Z,17.33
2023-05-24T18:57:24.195Z,17.70
2023-05-24T19:02:27.984Z,18.32
2023-05-24T19:07:35.090Z,17.82
2023-05-24T19:12:38.811Z,17.75
2023-05-24T19:17:42.509Z,17.75
2023-05-24T19:22:48.006Z,17.99
2023-05-24T19:32:58.088Z,18.73
2023-05-24T19:38:03.473Z,18.72
2023-05-24T19:43:07.137Z,18.94
2023-05-24T19:48:10.761Z,19.20
2023-05-24T19:53:16.603Z,19.60
2023-05-24T19:58:20.255Z,18.81
2023-05-24T20:03:23.966Z,19.09
2023-05-24T20:08:29.390Z,19.18
2023-05-24T20:13:33.053Z,19.24
2023-05-24T20:18:36.731Z,19.13
2023-05-24T20:23:43.001Z,18.97
2023-05-24T20:28:46.648Z,19.32
2023-05-24T20:33:51.079Z,19.51
2023-05-24T20:38:56.451Z,19.33
2023-05-24T20:44:00.120Z,19.51
2023-05-24T20:49:03.783Z,19.64
2023-05-24T20:54:09.173Z,20.09
2023-05-24T20:59:12.888Z,20.12
2023-05-24T21:04:16.557Z,19.69
2023-05-24T21:09:21.887Z,20.12
2023-05-24T21:14:25.540Z,19.89
2023-05-24T21:19:29.239Z,19.91
2023-05-24T21:24:34.572Z,19.94
2023-05-24T21:29:38.247Z,20.22
2023-05-24T21:34:42.068Z,20.37
2023-05-24T21:39:48.353Z,20.44
2023-05-24T21:44:52.056Z,20.38
2023-05-24T21:49:55.745Z,20.29
2023-05-24T22:00:32.143Z,20.36
2023-05-24T22:05:35.807Z,19.94
2023-05-24T22:10:41.151Z,20.26
2023-05-24T22:15:45.094Z,20.43
2023-05-24T22:20:50.455Z,20.59
2023-05-24T22:25:55.742Z,20.46
2023-05-24T22:30:59.413Z,20.24
2023-05-24T22:36:03.032Z,20.21
2023-05-24T22:41:08.422Z,20.10
2023-05-24T22:46:11.419Z,19.98
2023-05-24T22:51:15.034Z,19.75
2023-05-24T22:56:20.503Z,19.73
2023-05-24T23:01:23.510Z,19.71
2023-05-24T23:06:27.245Z,19.46
2023-05-24T23:11:32.589Z,19.40
2023-05-24T23:16:36.565Z,19.47
2023-05-24T23:21:40.297Z,19.36
2023-05-24T23:26:45.614Z,19.14
2023-05-24T23:31:49.331Z,19.22
2023-05-24T23:36:53.204Z,19.24
2023-05-24T23:41:58.597Z,19.20
2023-05-24T23:47:03.547Z,19.05
2023-05-24T23:52:08.184Z,19.08
2023-05-24T23:57:13.982Z,19.04
